Terminal Aerodrome Forecast
Issued by NWS

Home | Current Version | Previous Version | Text Only | Print | Product List | Glossary On
Versions: 1 2 3 4 5 6 7 8 9 10 11 12 13 14 15 16 17 18 19 20 21 22 23 24 25
122
FTUS43 KGRR 231254 AAA
TAFAZO
TAF AMD
KAZO 231254Z 2313/2412 29012KT P6SM -RA SCT015 BKN050
      TEMPO 2313/2314 5SM -SHRA BR OVC010
     FM231500 32008KT P6SM OVC020
     FM231800 29012KT P6SM BKN035
     FM240000 27008KT P6SM SCT050=

USA.gov is the U.S. government's official web portal to all federal, state and local government web resources and services.